sensor_id;sensor_type;location;lat;lon;timestamp;pressure;altitude;pressure_sealevel;temperature
19102;BMP280;9683;49.028;12.064;2023-02-15T00:01:54;98724.41;;;3.52
19102;BMP280;9683;49.028;12.064;2023-02-15T00:04:22;98718.72;;;3.47
19102;BMP280;9683;49.028;12.064;2023-02-15T00:06:49;98716.38;;;3.44
19102;BMP280;9683;49.028;12.064;2023-02-15T00:09:16;98719.16;;;3.42
19102;BMP280;9683;49.028;12.064;2023-02-15T00:11:42;98718.47;;;3.40
19102;BMP280;9683;49.028;12.064;2023-02-15T00:14:17;98725.53;;;3.40
19102;BMP280;9683;49.028;12.064;2023-02-15T00:16:44;98723.31;;;3.35
19102;BMP280;9683;49.028;12.064;2023-02-15T00:19:13;98720.56;;;3.37
19102;BMP280;9683;49.028;12.064;2023-02-15T00:21:40;98716.25;;;3.36
19102;BMP280;9683;49.028;12.064;2023-02-15T00:24:09;98719.44;;;3.39
19102;BMP280;9683;49.028;12.064;2023-02-15T00:26:37;98714.06;;;3.41
19102;BMP280;9683;49.028;12.064;2023-02-15T00:29:04;98715.97;;;3.39
19102;BMP280;9683;49.028;12.064;2023-02-15T00:31:35;98712.50;;;3.38
19102;BMP280;9683;49.028;12.064;2023-02-15T00:34:02;98719.16;;;3.42
19102;BMP280;9683;49.028;12.064;2023-02-15T00:36:30;98715.56;;;3.43
19102;BMP280;9683;49.028;12.064;2023-02-15T00:38:56;98711.13;;;3.44
19102;BMP280;9683;49.028;12.064;2023-02-15T00:41:23;98711.13;;;3.44
19102;BMP280;9683;49.028;12.064;2023-02-15T00:43:50;98713.88;;;3.42
19102;BMP280;9683;49.028;12.064;2023-02-15T00:46:16;98711.25;;;3.42
19102;BMP280;9683;49.028;12.064;2023-02-15T00:48:43;98708.78;;;3.41
19102;BMP280;9683;49.028;12.064;2023-02-15T00:51:09;98704.78;;;3.37
19102;BMP280;9683;49.028;12.064;2023-02-15T00:53:37;98703.38;;;3.33
19102;BMP280;9683;49.028;12.064;2023-02-15T00:56:04;98700.50;;;3.26
19102;BMP280;9683;49.028;12.064;2023-02-15T00:58:30;98699.94;;;3.22
19102;BMP280;9683;49.028;12.064;2023-02-15T01:01:03;98693.97;;;3.20
19102;BMP280;9683;49.028;12.064;2023-02-15T01:03:30;98685.72;;;3.15
19102;BMP280;9683;49.028;12.064;2023-02-15T01:05:57;98690.25;;;3.13
19102;BMP280;9683;49.028;12.064;2023-02-15T01:08:23;98696.34;;;3.14
19102;BMP280;9683;49.028;12.064;2023-02-15T01:10:51;98683.22;;;3.14
19102;BMP280;9683;49.028;12.064;2023-02-15T01:13:18;98682.50;;;3.12
19102;BMP280;9683;49.028;12.064;2023-02-15T01:15:45;98686.13;;;3.11
19102;BMP280;9683;49.028;12.064;2023-02-15T01:18:11;98679.06;;;3.11
19102;BMP280;9683;49.028;12.064;2023-02-15T01:20:39;98680.56;;;3.14
19102;BMP280;9683;49.028;12.064;2023-02-15T01:23:07;98673.38;;;3.16
19102;BMP280;9683;49.028;12.064;2023-02-15T01:25:35;98678.63;;;3.16
19102;BMP280;9683;49.028;12.064;2023-02-15T01:28:04;98670.75;;;3.16
19102;BMP280;9683;49.028;12.064;2023-02-15T01:30:31;98671.72;;;3.15
19102;BMP280;9683;49.028;12.064;2023-02-15T01:32:57;98662.31;;;3.12
19102;BMP280;9683;49.028;12.064;2023-02-15T01:35:26;98662.47;;;3.11
19102;BMP280;9683;49.028;12.064;2023-02-15T01:37:53;98670.47;;;3.09
19102;BMP280;9683;49.028;12.064;2023-02-15T01:40:20;98664.41;;;3.09
19102;BMP280;9683;49.028;12.064;2023-02-15T01:42:50;98663.31;;;3.11
19102;BMP280;9683;49.028;12.064;2023-02-15T01:45:21;98661.34;;;3.13
19102;BMP280;9683;49.028;12.064;2023-02-15T01:47:52;98649.88;;;3.14
19102;BMP280;9683;49.028;12.064;2023-02-15T01:50:24;98647.91;;;3.16
19102;BMP280;9683;49.028;12.064;2023-02-15T01:52:56;98642.81;;;3.15
19102;BMP280;9683;49.028;12.064;2023-02-15T01:55:27;98648.75;;;3.17
19102;BMP280;9683;49.028;12.064;2023-02-15T01:57:55;98645.44;;;3.15
19102;BMP280;9683;49.028;12.064;2023-02-15T02:00:23;98639.50;;;3.13
19102;BMP280;9683;49.028;12.064;2023-02-15T02:02:53;98640.59;;;3.10
19102;BMP280;9683;49.028;12.064;2023-02-15T02:05:21;98640.75;;;3.09
19102;BMP280;9683;49.028;12.064;2023-02-15T02:07:49;98636.03;;;3.12
19102;BMP280;9683;49.028;12.064;2023-02-15T02:10:18;98638.53;;;3.14
19102;BMP280;9683;49.028;12.064;2023-02-15T02:12:46;98634.22;;;3.13
19102;BMP280;9683;49.028;12.064;2023-02-15T02:15:13;98627.59;;;3.09
19102;BMP280;9683;49.028;12.064;2023-02-15T02:17:52;98620.66;;;3.08
19102;BMP280;9683;49.028;12.064;2023-02-15T02:20:43;98611.81;;;3.09
19102;BMP280;9683;49.028;12.064;2023-02-15T02:23:25;98617.63;;;3.12
19102;BMP280;9683;49.028;12.064;2023-02-15T02:26:18;98605.47;;;3.11
19102;BMP280;9683;49.028;12.064;2023-02-15T02:29:09;98606.69;;;3.07
19102;BMP280;9683;49.028;12.064;2023-02-15T02:31:59;98605.31;;;3.03
19102;BMP280;9683;49.028;12.064;2023-02-15T02:34:39;98608.25;;;3.00
19102;BMP280;9683;49.028;12.064;2023-02-15T02:37:18;98603.94;;;2.99
19102;BMP280;9683;49.028;12.064;2023-02-15T02:39:50;98597.19;;;2.97
19102;BMP280;9683;49.028;12.064;2023-02-15T02:42:27;98598.97;;;2.96
19102;BMP280;9683;49.028;12.064;2023-02-15T02:45:00;98595.53;;;2.96
19102;BMP280;9683;49.028;12.064;2023-02-15T02:47:32;98592.06;;;2.95
19102;BMP280;9683;49.028;12.064;2023-02-15T02:50:04;98603.16;;;2.99
19102;BMP280;9683;49.028;12.064;2023-02-15T02:52:35;98585.13;;;3.04
19102;BMP280;9683;49.028;12.064;2023-02-15T02:55:04;98598.16;;;3.05
19102;BMP280;9683;49.028;12.064;2023-02-15T02:57:32;98592.34;;;3.02
19102;BMP280;9683;49.028;12.064;2023-02-15T02:59:59;98594.13;;;3.01
19102;BMP280;9683;49.028;12.064;2023-02-15T03:02:32;98595.25;;;2.99
19102;BMP280;9683;49.028;12.064;2023-02-15T03:05:05;98596.22;;;2.98
19102;BMP280;9683;49.028;12.064;2023-02-15T03:07:35;98593.59;;;2.98
19102;BMP280;9683;49.028;12.064;2023-02-15T03:10:04;98595.25;;;2.99
19102;BMP280;9683;49.028;12.064;2023-02-15T03:12:33;98583.63;;;3.01
19102;BMP280;9683;49.028;12.064;2023-02-15T03:15:04;98588.88;;;3.01
19102;BMP280;9683;49.028;12.064;2023-02-15T03:17:32;98586.25;;;3.01
19102;BMP280;9683;49.028;12.064;2023-02-15T03:20:04;98592.19;;;3.03
19102;BMP280;9683;49.028;12.064;2023-02-15T03:22:35;98593.84;;;3.04
19102;BMP280;9683;49.028;12.064;2023-02-15T03:25:06;98593.84;;;3.04
19102;BMP280;9683;49.028;12.064;2023-02-15T03:27:38;98587.63;;;3.05
19102;BMP280;9683;49.028;12.064;2023-02-15T03:30:07;98589.56;;;3.03
19102;BMP280;9683;49.028;12.064;2023-02-15T03:32:36;98593.31;;;3.01
19102;BMP280;9683;49.028;12.064;2023-02-15T03:35:06;98592.34;;;3.02
19102;BMP280;9683;49.028;12.064;2023-02-15T03:37:35;98590.97;;;2.98
19102;BMP280;9683;49.028;12.064;2023-02-15T03:40:07;98586.25;;;2.92
19102;BMP280;9683;49.028;12.064;2023-02-15T03:42:55;98587.94;;;2.93
19102;BMP280;9683;49.028;12.064;2023-02-15T03:45:27;98590.84;;;2.90
19102;BMP280;9683;49.028;12.064;2023-02-15T03:47:57;98584.88;;;2.88
19102;BMP280;9683;49.028;12.064;2023-02-15T03:50:29;98582.25;;;2.88
19102;BMP280;9683;49.028;12.064;2023-02-15T03:53:18;98580.19;;;2.91
19102;BMP280;9683;49.028;12.064;2023-02-15T03:55:46;98579.22;;;2.92
19102;BMP280;9683;49.028;12.064;2023-02-15T03:58:13;98579.50;;;2.89
19102;BMP280;9683;49.028;12.064;2023-02-15T04:00:59;98577.84;;;2.88
19102;BMP280;9683;49.028;12.064;2023-02-15T04:03:47;98583.94;;;2.89
19102;BMP280;9683;49.028;12.064;2023-02-15T04:06:19;98585.72;;;2.88
19102;BMP280;9683;49.028;12.064;2023-02-15T04:08:46;98581.59;;;2.86
19102;BMP280;9683;49.028;12.064;2023-02-15T04:11:30;98582.56;;;2.85
19102;BMP280;9683;49.028;12.064;2023-02-15T04:13:56;98582.84;;;2.82
19102;BMP280;9683;49.028;12.064;2023-02-15T04:16:24;98584.75;;;2.80
19102;BMP280;9683;49.028;12.064;2023-02-15T04:18:50;98580.34;;;2.80
19102;BMP280;9683;49.028;12.064;2023-02-15T04:21:35;98585.59;;;2.80
19102;BMP280;9683;49.028;12.064;2023-02-15T04:24:20;98582.44;;;2.76
19102;BMP280;9683;49.028;12.064;2023-02-15T04:27:04;98585.34;;;2.73
19102;BMP280;9683;49.028;12.064;2023-02-15T04:29:32;98580.22;;;2.72
19102;BMP280;9683;49.028;12.064;2023-02-15T04:32:00;98588.09;;;2.72
19102;BMP280;9683;49.028;12.064;2023-02-15T04:34:27;98578.56;;;2.71
19102;BMP280;9683;49.028;12.064;2023-02-15T04:36:55;98583.13;;;2.69
19102;BMP280;9683;49.028;12.064;2023-02-15T04:39:21;98584.91;;;2.68
19102;BMP280;9683;49.028;12.064;2023-02-15T04:41:48;98591.97;;;2.68
19102;BMP280;9683;49.028;12.064;2023-02-15T04:44:15;98597.91;;;2.70
19102;BMP280;9683;49.028;12.064;2023-02-15T04:46:41;98600.53;;;2.70
19102;BMP280;9683;49.028;12.064;2023-02-15T04:49:08;98596.94;;;2.71
19102;BMP280;9683;49.028;12.064;2023-02-15T04:51:35;98592.53;;;2.71
19102;BMP280;9683;49.028;12.064;2023-02-15T04:54:03;98601.09;;;2.73
19102;BMP280;9683;49.028;12.064;2023-02-15T04:56:30;98591.13;;;2.67
19102;BMP280;9683;49.028;12.064;2023-02-15T04:58:58;98591.13;;;2.67
19102;BMP280;9683;49.028;12.064;2023-02-15T05:01:25;98586.84;;;2.66
19102;BMP280;9683;49.028;12.064;2023-02-15T05:03:51;98590.31;;;2.67
19102;BMP280;9683;49.028;12.064;2023-02-15T05:06:18;98584.22;;;2.66
19102;BMP280;9683;49.028;12.064;2023-02-15T05:08:44;98578.13;;;2.66
19102;BMP280;9683;49.028;12.064;2023-02-15T05:11:12;98582.41;;;2.67
19102;BMP280;9683;49.028;12.064;2023-02-15T05:13:39;98589.63;;;2.65
19102;BMP280;9683;49.028;12.064;2023-02-15T05:16:06;98584.22;;;2.66
19102;BMP280;9683;49.028;12.064;2023-02-15T05:18:32;98593.22;;;2.64
19102;BMP280;9683;49.028;12.064;2023-02-15T05:20:59;98591.44;;;2.64
19102;BMP280;9683;49.028;12.064;2023-02-15T05:23:25;98583.66;;;2.63
19102;BMP280;9683;49.028;12.064;2023-02-15T05:25:52;98585.47;;;2.62
19102;BMP280;9683;49.028;12.064;2023-02-15T05:28:38;98585.34;;;2.64
19102;BMP280;9683;49.028;12.064;2023-02-15T05:31:06;98581.75;;;2.65
19102;BMP280;9683;49.028;12.064;2023-02-15T05:33:34;98578.84;;;2.68
19102;BMP280;9683;49.028;12.064;2023-02-15T05:36:01;98576.88;;;2.70
19102;BMP280;9683;49.028;12.064;2023-02-15T05:38:28;98577.59;;;2.72
19102;BMP280;9683;49.028;12.064;2023-02-15T05:40:55;98579.38;;;2.71
19102;BMP280;9683;49.028;12.064;2023-02-15T05:43:23;98585.59;;;2.70
19102;BMP280;9683;49.028;12.064;2023-02-15T05:45:53;98583.94;;;2.69
19102;BMP280;9683;49.028;12.064;2023-02-15T05:48:23;98582.28;;;2.68
19102;BMP280;9683;49.028;12.064;2023-02-15T05:50:57;98584.09;;;2.68
19102;BMP280;9683;49.028;12.064;2023-02-15T05:53:24;98588.78;;;2.64
19102;BMP280;9683;49.028;12.064;2023-02-15T05:55:51;98592.38;;;2.63
19102;BMP280;9683;49.028;12.064;2023-02-15T05:58:18;98595.28;;;2.60
19102;BMP280;9683;49.028;12.064;2023-02-15T06:00:45;98592.78;;;2.59
19102;BMP280;9683;49.028;12.064;2023-02-15T06:03:12;98596.25;;;2.59
19102;BMP280;9683;49.028;12.064;2023-02-15T06:05:39;98596.25;;;2.59
19102;BMP280;9683;49.028;12.064;2023-02-15T06:08:06;98596.94;;;2.61
19102;BMP280;9683;49.028;12.064;2023-02-15T06:10:32;98595.13;;;2.62
19102;BMP280;9683;49.028;12.064;2023-02-15T06:12:59;98598.59;;;2.62
19102;BMP280;9683;49.028;12.064;2023-02-15T06:15:25;98598.31;;;2.65
19102;BMP280;9683;49.028;12.064;2023-02-15T06:17:52;98599.00;;;2.67
19102;BMP280;9683;49.028;12.064;2023-02-15T06:20:20;98601.50;;;2.69
19102;BMP280;9683;49.028;12.064;2023-02-15T06:22:47;98607.84;;;2.66
19102;BMP280;9683;49.028;12.064;2023-02-15T06:25:14;98612.97;;;2.68
19102;BMP280;9683;49.028;12.064;2023-02-15T06:27:41;98617.28;;;2.69
19102;BMP280;9683;49.028;12.064;2023-02-15T06:30:09;98611.72;;;2.72
19102;BMP280;9683;49.028;12.064;2023-02-15T06:32:36;98608.00;;;2.74
19102;BMP280;9683;49.028;12.064;2023-02-15T06:35:03;98612.00;;;2.78
19102;BMP280;9683;49.028;12.064;2023-02-15T06:37:31;98603.28;;;2.78
19102;BMP280;9683;49.028;12.064;2023-02-15T06:39:58;98610.50;;;2.76
19102;BMP280;9683;49.028;12.064;2023-02-15T06:42:25;98613.94;;;2.76
19102;BMP280;9683;49.028;12.064;2023-02-15T06:44:51;98614.91;;;2.75
19102;BMP280;9683;49.028;12.064;2023-02-15T06:47:18;98618.50;;;2.74
19102;BMP280;9683;49.028;12.064;2023-02-15T06:49:44;98618.50;;;2.74
19102;BMP280;9683;49.028;12.064;2023-02-15T06:52:11;98622.66;;;2.77
19102;BMP280;9683;49.028;12.064;2023-02-15T06:54:39;98619.03;;;2.78
19102;BMP280;9683;49.028;12.064;2023-02-15T06:57:06;98622.66;;;2.77
19102;BMP280;9683;49.028;12.064;2023-02-15T06:59:32;98617.53;;;2.75
19102;BMP280;9683;49.028;12.064;2023-02-15T07:01:59;98617.81;;;2.72
19102;BMP280;9683;49.028;12.064;2023-02-15T07:04:25;98615.59;;;2.68
19102;BMP280;9683;49.028;12.064;2023-02-15T07:06:53;98610.66;;;2.65
19102;BMP280;9683;49.028;12.064;2023-02-15T07:09:20;98621.16;;;2.65
19102;BMP280;9683;49.028;12.064;2023-02-15T07:11:48;98615.91;;;2.65
19102;BMP280;9683;49.028;12.064;2023-02-15T07:14:32;98614.34;;;2.62
19102;BMP280;9683;49.028;12.064;2023-02-15T07:16:59;98608.16;;;2.63
19102;BMP280;9683;49.028;12.064;2023-02-15T07:19:26;98609.81;;;2.64
19102;BMP280;9683;49.028;12.064;2023-02-15T07:21:52;98609.53;;;2.67
19102;BMP280;9683;49.028;12.064;2023-02-15T07:24:19;98602.31;;;2.69
19102;BMP280;9683;49.028;12.064;2023-02-15T07:26:45;98600.41;;;2.71
19102;BMP280;9683;49.028;12.064;2023-02-15T07:29:14;98598.59;;;2.72
19102;BMP280;9683;49.028;12.064;2023-02-15T07:31:41;98596.25;;;2.69
19102;BMP280;9683;49.028;12.064;2023-02-15T07:34:10;98594.59;;;2.68
19102;BMP280;9683;49.028;12.064;2023-02-15T07:36:37;98587.81;;;2.65
19102;BMP280;9683;49.028;12.064;2023-02-15T07:39:03;98592.38;;;2.63
19102;BMP280;9683;49.028;12.064;2023-02-15T07:41:30;98598.31;;;2.65
19102;BMP280;9683;49.028;12.064;2023-02-15T07:43:57;98591.44;;;2.64
19102;BMP280;9683;49.028;12.064;2023-02-15T07:46:24;98590.59;;;2.64
19102;BMP280;9683;49.028;12.064;2023-02-15T07:48:51;98585.34;;;2.64
19102;BMP280;9683;49.028;12.064;2023-02-15T07:51:18;98580.50;;;2.69
19102;BMP280;9683;49.028;12.064;2023-02-15T07:53:44;98587.25;;;2.71
19102;BMP280;9683;49.028;12.064;2023-02-15T07:56:14;98587.13;;;2.73
19102;BMP280;9683;49.028;12.064;2023-02-15T07:58:41;98598.47;;;2.73
19102;BMP280;9683;49.028;12.064;2023-02-15T08:01:23;98593.75;;;2.77
19102;BMP280;9683;49.028;12.064;2023-02-15T08:03:51;98591.13;;;2.77
19102;BMP280;9683;49.028;12.064;2023-02-15T08:06:19;98591.97;;;2.78
19102;BMP280;9683;49.028;12.064;2023-02-15T08:08:45;98593.88;;;2.75
19102;BMP280;9683;49.028;12.064;2023-02-15T08:11:18;98599.28;;;2.74
19102;BMP280;9683;49.028;12.064;2023-02-15T08:13:59;98598.88;;;2.69
19102;BMP280;9683;49.028;12.064;2023-02-15T08:16:32;98599.84;;;2.68
19102;BMP280;9683;49.028;12.064;2023-02-15T08:19:02;98603.16;;;2.70
19102;BMP280;9683;49.028;12.064;2023-02-15T08:21:29;98603.03;;;2.71
19102;BMP280;9683;49.028;12.064;2023-02-15T08:23:57;98598.88;;;2.69
19102;BMP280;9683;49.028;12.064;2023-02-15T08:26:24;98597.34;;;2.66
19102;BMP280;9683;49.028;12.064;2023-02-15T08:28:51;98596.69;;;2.64
19102;BMP280;9683;49.028;12.064;2023-02-15T08:31:19;98592.81;;;2.68
19102;BMP280;9683;49.028;12.064;2023-02-15T08:33:47;98596.81;;;2.72
19102;BMP280;9683;49.028;12.064;2023-02-15T08:36:17;98591.28;;;2.75
19102;BMP280;9683;49.028;12.064;2023-02-15T08:38:44;98599.56;;;2.71
19102;BMP280;9683;49.028;12.064;2023-02-15T08:41:13;98594.72;;;2.66
19102;BMP280;9683;49.028;12.064;2023-02-15T08:43:40;98602.19;;;2.61
19102;BMP280;9683;49.028;12.064;2023-02-15T08:46:07;98602.47;;;2.58
19102;BMP280;9683;49.028;12.064;2023-02-15T08:48:34;98602.47;;;2.58
19102;BMP280;9683;49.028;12.064;2023-02-15T08:51:05;98597.22;;;2.58
19102;BMP280;9683;49.028;12.064;2023-02-15T08:53:34;98600.81;;;2.57
19102;BMP280;9683;49.028;12.064;2023-02-15T08:56:00;98601.78;;;2.56
19102;BMP280;9683;49.028;12.064;2023-02-15T08:58:28;98599.41;;;2.53
19102;BMP280;9683;49.028;12.064;2023-02-15T09:00:55;98607.47;;;2.52
19102;BMP280;9683;49.028;12.064;2023-02-15T09:03:22;98599.72;;;2.50
19102;BMP280;9683;49.028;12.064;2023-02-15T09:05:49;98600.66;;;2.49
19102;BMP280;9683;49.028;12.064;2023-02-15T09:08:16;98596.13;;;2.51
19102;BMP280;9683;49.028;12.064;2023-02-15T09:10:44;98602.75;;;2.55
19102;BMP280;9683;49.028;12.064;2023-02-15T09:13:10;98599.00;;;2.58
19102;BMP280;9683;49.028;12.064;2023-02-15T09:15:37;98601.38;;;2.61
19102;BMP280;9683;49.028;12.064;2023-02-15T09:18:03;98604.81;;;2.61
19102;BMP280;9683;49.028;12.064;2023-02-15T09:20:32;98596.25;;;2.59
19102;BMP280;9683;49.028;12.064;2023-02-15T09:23:01;98599.72;;;2.60
19102;BMP280;9683;49.028;12.064;2023-02-15T09:25:27;98598.75;;;2.61
19102;BMP280;9683;49.028;12.064;2023-02-15T09:27:55;98595.56;;;2.57
19102;BMP280;9683;49.028;12.064;2023-02-15T09:30:22;98594.16;;;2.53
19102;BMP280;9683;49.028;12.064;2023-02-15T09:32:49;98593.09;;;2.56
19102;BMP280;9683;49.028;12.064;2023-02-15T09:35:15;98594.59;;;2.58
19102;BMP280;9683;49.028;12.064;2023-02-15T09:37:42;98593.22;;;2.64
19102;BMP280;9683;49.028;12.064;2023-02-15T09:40:11;98595.44;;;2.68
19102;BMP280;9683;49.028;12.064;2023-02-15T09:45:57;98603.44;;;2.67
19102;BMP280;9683;49.028;12.064;2023-02-15T09:48:38;98598.31;;;2.65
19102;BMP280;9683;49.028;12.064;2023-02-15T09:51:27;98602.47;;;2.68
19102;BMP280;9683;49.028;12.064;2023-02-15T09:54:09;98604.28;;;2.67
19102;BMP280;9683;49.028;12.064;2023-02-15T09:56:45;98605.78;;;2.70
19102;BMP280;9683;49.028;12.064;2023-02-15T09:59:20;98605.53;;;2.73
19102;BMP280;9683;49.028;12.064;2023-02-15T10:01:56;98601.91;;;2.74
19102;BMP280;9683;49.028;12.064;2023-02-15T10:04:38;98599.97;;;2.76
19102;BMP280;9683;49.028;12.064;2023-02-15T10:07:14;98604.28;;;2.77
19102;BMP280;9683;49.028;12.064;2023-02-15T10:09:56;98603.03;;;2.81
19102;BMP280;9683;49.028;12.064;2023-02-15T10:12:43;98604.41;;;2.85
19102;BMP280;9683;49.028;12.064;2023-02-15T10:15:20;98603.28;;;2.88
19102;BMP280;9683;49.028;12.064;2023-02-15T10:18:05;98605.63;;;2.91
19102;BMP280;9683;49.028;12.064;2023-02-15T10:20:41;98604.38;;;2.95
19102;BMP280;9683;49.028;12.064;2023-02-15T10:23:31;98602.16;;;3.00
19102;BMP280;9683;49.028;12.064;2023-02-15T10:26:10;98600.22;;;3.02
19102;BMP280;9683;49.028;12.064;2023-02-15T10:28:43;98599.09;;;3.04
19102;BMP280;9683;49.028;12.064;2023-02-15T10:31:18;98596.47;;;3.04
19102;BMP280;9683;49.028;12.064;2023-02-15T10:33:56;98596.19;;;3.07
19102;BMP280;9683;49.028;12.064;2023-02-15T10:36:36;98588.03;;;3.10
19102;BMP280;9683;49.028;12.064;2023-02-15T10:39:12;98581.66;;;3.13
19102;BMP280;9683;49.028;12.064;2023-02-15T10:41:46;98582.19;;;3.16
19102;BMP280;9683;49.028;12.064;2023-02-15T10:44:27;98575.69;;;3.20
19102;BMP280;9683;49.028;12.064;2023-02-15T10:47:20;98581.66;;;3.22
19102;BMP280;9683;49.028;12.064;2023-02-15T10:50:18;98585.78;;;3.25
19102;BMP280;9683;49.028;12.064;2023-02-15T10:52:56;98579.13;;;3.31
19102;BMP280;9683;49.028;12.064;2023-02-15T10:55:37;98574.53;;;3.33
19102;BMP280;9683;49.028;12.064;2023-02-15T10:58:11;98574.41;;;3.34
19102;BMP280;9683;49.028;12.064;2023-02-15T11:00:45;98560.28;;;3.35
19102;BMP280;9683;49.028;12.064;2023-02-15T11:03:26;98566.91;;;3.39
19102;BMP280;9683;49.028;12.064;2023-02-15T11:06:02;98558.91;;;3.41
19102;BMP280;9683;49.028;12.064;2023-02-15T11:08:32;98560.53;;;3.42
19102;BMP280;9683;49.028;12.064;2023-02-15T11:11:03;98557.06;;;3.41
19102;BMP280;9683;49.028;12.064;2023-02-15T11:13:32;98563.03;;;3.43
19102;BMP280;9683;49.028;12.064;2023-02-15T11:16:02;98552.38;;;3.45
19102;BMP280;9683;49.028;12.064;2023-02-15T11:18:33;98564.41;;;3.47
19102;BMP280;9683;49.028;12.064;2023-02-15T11:21:04;98552.06;;;3.48
19102;BMP280;9683;49.028;12.064;2023-02-15T11:23:35;98546.66;;;3.49
19102;BMP280;9683;49.028;12.064;2023-02-15T11:26:03;98539.06;;;3.46
19102;BMP280;9683;49.028;12.064;2023-02-15T11:28:33;98534.75;;;3.45
19102;BMP280;9683;49.028;12.064;2023-02-15T11:31:09;98531.03;;;3.48
19102;BMP280;9683;49.028;12.064;2023-02-15T11:33:39;98528.09;;;3.51
19102;BMP280;9683;49.028;12.064;2023-02-15T11:36:13;98526.16;;;3.53
19102;BMP280;9683;49.028;12.064;2023-02-15T11:38:42;98525.34;;;3.52
19102;BMP280;9683;49.028;12.064;2023-02-15T11:41:10;98523.69;;;3.51
19102;BMP280;9683;49.028;12.064;2023-02-15T11:43:41;98515.91;;;3.50
19102;BMP280;9683;49.028;12.064;2023-02-15T11:46:11;98515.78;;;3.51
19102;BMP280;9683;49.028;12.064;2023-02-15T11:48:38;98511.22;;;3.53
19102;BMP280;9683;49.028;12.064;2023-02-15T11:51:05;98512.59;;;3.57
19102;BMP280;9683;49.028;12.064;2023-02-15T11:53:37;98505.06;;;3.62
19102;BMP280;9683;49.028;12.064;2023-02-15T11:56:04;98494.41;;;3.64
19102;BMP280;9683;49.028;12.064;2023-02-15T11:58:35;98497.84;;;3.64
19102;BMP280;9683;49.028;12.064;2023-02-15T12:01:09;98489.81;;;3.66
19102;BMP280;9683;49.028;12.064;2023-02-15T12:03:43;98493.97;;;3.68
19102;BMP280;9683;49.028;12.064;2023-02-15T12:06:16;98495.63;;;3.69
19102;BMP280;9683;49.028;12.064;2023-02-15T12:08:50;98495.63;;;3.69
19102;BMP280;9683;49.028;12.064;2023-02-15T12:11:20;98489.66;;;3.67
19102;BMP280;9683;49.028;12.064;2023-02-15T12:13:57;98489.66;;;3.67
19102;BMP280;9683;49.028;12.064;2023-02-15T12:16:24;98481.78;;;3.67
19102;BMP280;9683;49.028;12.064;2023-02-15T12:18:52;98483.28;;;3.70
19102;BMP280;9683;49.028;12.064;2023-02-15T12:21:26;98488.56;;;3.70
19102;BMP280;9683;49.028;12.064;2023-02-15T12:23:57;98473.75;;;3.69
19102;BMP280;9683;49.028;12.064;2023-02-15T12:26:25;98472.91;;;3.68
19102;BMP280;9683;49.028;12.064;2023-02-15T12:28:54;98464.06;;;3.69
19102;BMP280;9683;49.028;12.064;2023-02-15T12:31:26;98461.41;;;3.69
19102;BMP280;9683;49.028;12.064;2023-02-15T12:33:54;98465.69;;;3.70
19102;BMP280;9683;49.028;12.064;2023-02-15T12:36:24;98458.63;;;3.71
19102;BMP280;9683;49.028;12.064;2023-02-15T12:39:15;98459.16;;;3.75
19102;BMP280;9683;49.028;12.064;2023-02-15T12:41:46;98453.59;;;3.78
19102;BMP280;9683;49.028;12.064;2023-02-15T12:44:16;98454.44;;;3.78
19102;BMP280;9683;49.028;12.064;2023-02-15T12:46:56;98459.84;;;3.77
19102;BMP280;9683;49.028;12.064;2023-02-15T12:49:22;98456.16;;;3.69
19102;BMP280;9683;49.028;12.064;2023-02-15T12:51:50;98461.56;;;3.68
19102;BMP280;9683;49.028;12.064;2023-02-15T12:54:37;98466.00;;;3.67
19102;BMP280;9683;49.028;12.064;2023-02-15T12:57:30;98456.44;;;3.66
19102;BMP280;9683;49.028;12.064;2023-02-15T12:59:58;98457.13;;;3.68
19102;BMP280;9683;49.028;12.064;2023-02-15T13:02:30;98447.97;;;3.73
19102;BMP280;9683;49.028;12.064;2023-02-15T13:05:13;98444.88;;;3.77
19102;BMP280;9683;49.028;12.064;2023-02-15T13:07:44;98448.34;;;3.78
19102;BMP280;9683;49.028;12.064;2023-02-15T13:10:24;98443.22;;;3.76
19102;BMP280;9683;49.028;12.064;2023-02-15T13:12:52;98437.44;;;3.73
19102;BMP280;9683;49.028;12.064;2023-02-15T13:15:34;98427.88;;;3.72
19102;BMP280;9683;49.028;12.064;2023-02-15T13:18:03;98430.00;;;3.68
19102;BMP280;9683;49.028;12.064;2023-02-15T13:20:31;98427.34;;;3.68
19102;BMP280;9683;49.028;12.064;2023-02-15T13:23:04;98420.16;;;3.70
19102;BMP280;9683;49.028;12.064;2023-02-15T13:25:37;98422.09;;;3.68
19102;BMP280;9683;49.028;12.064;2023-02-15T13:28:06;98421.44;;;3.66
19102;BMP280;9683;49.028;12.064;2023-02-15T13:30:43;98415.88;;;3.69
19102;BMP280;9683;49.028;12.064;2023-02-15T13:33:16;98414.91;;;3.70
19102;BMP280;9683;49.028;12.064;2023-02-15T13:35:47;98416.69;;;3.69
19102;BMP280;9683;49.028;12.064;2023-02-15T13:38:30;98419.84;;;3.73
19102;BMP280;9683;49.028;12.064;2023-02-15T13:41:04;98430.75;;;3.78
19102;BMP280;9683;49.028;12.064;2023-02-15T13:43:40;98426.84;;;3.82
19102;BMP280;9683;49.028;12.064;2023-02-15T13:46:19;98429.16;;;3.85
19102;BMP280;9683;49.028;12.064;2023-02-15T13:48:56;98423.06;;;3.85
19102;BMP280;9683;49.028;12.064;2023-02-15T13:51:31;98430.81;;;3.86
19102;BMP280;9683;49.028;12.064;2023-02-15T13:54:19;98423.59;;;3.88
19102;BMP280;9683;49.028;12.064;2023-02-15T13:57:00;98419.47;;;3.86
19102;BMP280;9683;49.028;12.064;2023-02-15T13:59:44;98410.22;;;3.82
19102;BMP280;9683;49.028;12.064;2023-02-15T14:02:34;98408.44;;;3.82
19102;BMP280;9683;49.028;12.064;2023-02-15T14:05:20;98406.44;;;3.84
19102;BMP280;9683;49.028;12.064;2023-02-15T14:07:57;98404.66;;;3.85
19102;BMP280;9683;49.028;12.064;2023-02-15T14:10:38;98401.50;;;3.81
19102;BMP280;9683;49.028;12.064;2023-02-15T14:13:44;98405.78;;;3.82
19102;BMP280;9683;49.028;12.064;2023-02-15T14:16:18;98397.22;;;3.80
19102;BMP280;9683;49.028;12.064;2023-02-15T14:18:48;98394.75;;;3.79
19102;BMP280;9683;49.028;12.064;2023-02-15T14:21:21;98397.66;;;3.76
19102;BMP280;9683;49.028;12.064;2023-02-15T14:24:01;98396.81;;;3.75
19102;BMP280;9683;49.028;12.064;2023-02-15T14:26:38;98395.03;;;3.76
19102;BMP280;9683;49.028;12.064;2023-02-15T14:29:16;98406.06;;;3.79
19102;BMP280;9683;49.028;12.064;2023-02-15T14:31:49;98403.31;;;3.81
19102;BMP280;9683;49.028;12.064;2023-02-15T14:34:22;98399.69;;;3.82
19102;BMP280;9683;49.028;12.064;2023-02-15T14:36:50;98399.69;;;3.82
19102;BMP280;9683;49.028;12.064;2023-02-15T14:39:26;98396.56;;;3.78
19102;BMP280;9683;49.028;12.064;2023-02-15T14:42:18;98396.94;;;3.65
19102;BMP280;9683;49.028;12.064;2023-02-15T14:44:51;98398.03;;;3.63
19102;BMP280;9683;49.028;12.064;2023-02-15T14:47:24;98398.56;;;3.66
19102;BMP280;9683;49.028;12.064;2023-02-15T14:49:51;98396.47;;;3.70